createdAt,value
2022-12-16T00:01:42.642Z,5.40
2022-12-16T00:03:48.220Z,5.40
2022-12-16T00:05:49.883Z,5.40
2022-12-16T00:07:53.407Z,5.40
2022-12-16T00:09:56.554Z,5.40
2022-12-16T00:11:58.222Z,5.40
2022-12-16T00:13:59.982Z,5.50
2022-12-16T00:16:05.933Z,5.50
2022-12-16T00:18:07.688Z,5.50
2022-12-16T00:20:10.597Z,5.50
2022-12-16T00:22:12.223Z,5.50
2022-12-16T00:24:13.852Z,5.50
2022-12-16T00:26:15.608Z,5.50
2022-12-16T00:28:17.935Z,5.50
2022-12-16T00:30:19.581Z,5.50
2022-12-16T00:32:21.269Z,5.60
2022-12-16T00:34:22.910Z,5.60
2022-12-16T00:36:24.537Z,5.60
2022-12-16T00:38:26.601Z,5.60
2022-12-16T00:40:28.232Z,5.60
2022-12-16T00:42:30.383Z,5.70
2022-12-16T00:44:31.988Z,5.70
2022-12-16T00:46:33.633Z,5.70
2022-12-16T00:48:35.274Z,5.70
2022-12-16T00:50:36.970Z,5.70
2022-12-16T00:52:38.655Z,5.70
2022-12-16T00:54:40.285Z,5.70
2022-12-16T00:56:41.890Z,5.70
2022-12-16T00:58:43.961Z,5.70
2022-12-16T01:00:45.667Z,5.70
2022-12-16T01:02:48.590Z,5.70
2022-12-16T01:04:50.307Z,5.70
2022-12-16T01:06:52.264Z,5.70
2022-12-16T01:08:53.945Z,5.70
2022-12-16T01:10:57.364Z,5.70
2022-12-16T01:12:59.179Z,5.70
2022-12-16T01:15:00.808Z,5.70
2022-12-16T01:17:02.420Z,5.70
2022-12-16T01:19:04.104Z,5.70
2022-12-16T01:21:07.108Z,5.70
2022-12-16T01:23:10.112Z,5.70
2022-12-16T01:25:12.916Z,5.60
2022-12-16T01:27:15.357Z,5.60
2022-12-16T01:29:16.982Z,5.60
2022-12-16T01:31:19.188Z,5.60
2022-12-16T01:33:20.861Z,5.60
2022-12-16T01:35:52.123Z,5.60
2022-12-16T01:37:44.102Z,5.60
2022-12-16T01:39:45.729Z,5.60
2022-12-16T01:41:47.376Z,5.60
2022-12-16T01:43:49.313Z,5.60
2022-12-16T01:45:51.665Z,5.60
2022-12-16T01:47:55.403Z,5.60
2022-12-16T01:50:04.322Z,5.60
2022-12-16T01:52:08.282Z,5.60
2022-12-16T01:54:11.802Z,5.60
2022-12-16T01:56:15.291Z,5.60
2022-12-16T01:58:22.394Z,5.60
2022-12-16T02:00:24.025Z,5.60
2022-12-16T02:02:27.124Z,5.70
2022-12-16T02:04:28.850Z,5.60
2022-12-16T02:06:31.246Z,5.70
2022-12-16T02:08:32.871Z,5.60
2022-12-16T02:10:37.600Z,5.70
2022-12-16T02:12:39.195Z,5.70
2022-12-16T02:14:46.840Z,5.70
2022-12-16T02:16:55.190Z,5.70
2022-12-16T02:18:56.844Z,5.70
2022-12-16T02:21:01.254Z,5.70
2022-12-16T02:23:05.723Z,5.80
2022-12-16T02:25:26.118Z,5.80
2022-12-16T02:27:27.763Z,5.80
2022-12-16T02:29:37.924Z,5.80
2022-12-16T02:31:53.709Z,5.80
2022-12-16T02:34:14.049Z,5.80
2022-12-16T02:36:30.291Z,5.80
2022-12-16T02:38:39.652Z,5.80
2022-12-16T02:41:00.139Z,5.80
2022-12-16T02:43:07.711Z,5.80
2022-12-16T02:45:14.950Z,5.80
2022-12-16T02:47:16.569Z,5.90
2022-12-16T02:49:18.202Z,5.80
2022-12-16T02:51:20.205Z,5.80
2022-12-16T02:53:21.904Z,5.90
2022-12-16T02:55:27.774Z,5.80
2022-12-16T02:57:49.718Z,5.90
2022-12-16T03:00:07.967Z,5.80
2022-12-16T03:02:15.181Z,5.90
2022-12-16T03:04:38.762Z,5.90
2022-12-16T03:06:42.206Z,5.80
2022-12-16T03:08:46.035Z,5.80
2022-12-16T03:10:52.524Z,5.80
2022-12-16T03:12:54.256Z,5.80
2022-12-16T03:14:56.039Z,5.80
2022-12-16T03:16:58.432Z,5.80
2022-12-16T03:19:08.124Z,5.70
2022-12-16T03:21:11.196Z,5.70
2022-12-16T03:23:16.210Z,5.70
2022-12-16T03:25:19.725Z,5.70
2022-12-16T03:27:33.732Z,5.60
2022-12-16T03:29:41.527Z,5.60
2022-12-16T03:31:58.652Z,5.50
2022-12-16T03:34:05.125Z,5.50
2022-12-16T03:36:09.611Z,5.50
2022-12-16T03:38:12.172Z,5.50
2022-12-16T03:40:14.698Z,5.40
2022-12-16T03:42:16.421Z,5.40
2022-12-16T03:44:18.300Z,5.40
2022-12-16T03:46:20.003Z,5.40
2022-12-16T03:48:23.077Z,5.40
2022-12-16T03:50:30.001Z,5.30
2022-12-16T03:52:31.702Z,5.30
2022-12-16T03:54:33.629Z,5.30
2022-12-16T03:56:35.270Z,5.20
2022-12-16T03:58:39.785Z,5.20
2022-12-16T04:00:41.507Z,5.20
2022-12-16T04:02:43.600Z,5.20
2022-12-16T04:04:45.383Z,5.10
2022-12-16T04:07:06.949Z,5.10
2022-12-16T04:09:08.914Z,5.10
2022-12-16T04:11:29.488Z,5.10
2022-12-16T04:13:51.411Z,5.00
2022-12-16T04:16:11.663Z,5.00
2022-12-16T04:18:44.038Z,4.90
2022-12-16T04:21:06.241Z,4.90
2022-12-16T04:23:38.580Z,4.90
2022-12-16T04:25:40.238Z,4.90
2022-12-16T04:27:47.069Z,4.90
2022-12-16T04:30:07.535Z,4.80
2022-12-16T04:32:09.191Z,4.80
2022-12-16T04:34:25.812Z,4.80
2022-12-16T04:36:46.253Z,4.80
2022-12-16T04:39:06.493Z,4.70
2022-12-16T04:41:26.691Z,4.70
2022-12-16T04:43:46.852Z,4.70
2022-12-16T04:46:07.488Z,4.70
2022-12-16T04:48:28.015Z,4.60
2022-12-16T04:50:48.732Z,4.60
2022-12-16T04:53:09.547Z,4.60
2022-12-16T04:55:30.373Z,4.60
2022-12-16T04:57:50.586Z,4.60
2022-12-16T05:00:10.880Z,4.60
2022-12-16T05:02:31.509Z,4.60
2022-12-16T05:04:52.051Z,4.50
2022-12-16T05:07:12.379Z,4.50
2022-12-16T05:09:32.616Z,4.50
2022-12-16T05:11:52.737Z,4.50
2022-12-16T05:14:13.587Z,4.50
2022-12-16T05:16:33.876Z,4.40
2022-12-16T05:18:54.416Z,4.40
2022-12-16T05:21:16.220Z,4.40
2022-12-16T05:23:36.541Z,4.40
2022-12-16T05:25:56.712Z,4.40
2022-12-16T05:28:16.947Z,4.40
2022-12-16T05:30:37.161Z,4.40
2022-12-16T05:32:57.313Z,4.40
2022-12-16T05:35:17.482Z,4.30
2022-12-16T05:37:37.600Z,4.30
2022-12-16T05:39:57.749Z,4.30
2022-12-16T05:42:17.746Z,4.30
2022-12-16T05:44:37.908Z,4.30
2022-12-16T05:46:58.125Z,4.30
2022-12-16T05:49:18.561Z,4.30
2022-12-16T05:51:38.723Z,4.30
2022-12-16T05:53:58.970Z,4.20
2022-12-16T05:56:19.100Z,4.20
2022-12-16T05:58:39.296Z,4.20
2022-12-16T06:00:59.428Z,4.30
2022-12-16T06:03:19.968Z,4.20
2022-12-16T06:05:40.411Z,4.20
2022-12-16T06:08:00.491Z,4.20
2022-12-16T06:10:20.870Z,4.10
2022-12-16T06:12:40.990Z,4.10
2022-12-16T06:15:01.324Z,4.10
2022-12-16T06:17:21.430Z,4.00
2022-12-16T06:19:41.698Z,4.00
2022-12-16T06:22:01.898Z,4.00
2022-12-16T06:24:22.100Z,4.00
2022-12-16T06:26:42.322Z,3.90
2022-12-16T06:29:02.549Z,3.90
2022-12-16T06:31:23.086Z,3.90
2022-12-16T06:33:43.546Z,3.80
2022-12-16T06:36:03.779Z,3.80
2022-12-16T06:38:24.038Z,3.80
2022-12-16T06:40:44.330Z,3.70
2022-12-16T06:43:04.509Z,3.70
2022-12-16T06:45:27.909Z,3.70
2022-12-16T06:47:51.874Z,3.70
2022-12-16T06:50:13.047Z,3.60
2022-12-16T06:52:33.253Z,3.60
2022-12-16T06:54:53.359Z,3.60
2022-12-16T06:57:13.782Z,3.60
2022-12-16T06:59:33.887Z,3.60
2022-12-16T07:01:54.183Z,3.50
2022-12-16T07:04:14.675Z,3.50
2022-12-16T07:06:34.802Z,3.50
2022-12-16T07:08:54.993Z,3.50
2022-12-16T07:11:16.949Z,3.40
2022-12-16T07:13:37.828Z,3.40
2022-12-16T07:16:05.602Z,3.40
2022-12-16T07:18:25.934Z,3.40
2022-12-16T07:20:46.320Z,3.40
2022-12-16T07:23:13.136Z,3.40
2022-12-16T07:25:36.207Z,3.40
2022-12-16T07:27:56.435Z,3.30
2022-12-16T07:30:16.804Z,3.30
2022-12-16T07:32:37.064Z,3.30
2022-12-16T07:35:13.898Z,3.30
2022-12-16T07:37:34.283Z,3.30
2022-12-16T07:39:55.374Z,3.30
2022-12-16T07:42:16.117Z,3.30
2022-12-16T07:44:36.648Z,3.30
2022-12-16T07:46:56.804Z,3.40
2022-12-16T07:49:17.023Z,3.40
2022-12-16T07:51:37.474Z,3.40
2022-12-16T07:53:57.933Z,3.40
2022-12-16T07:56:18.381Z,3.40
2022-12-16T07:58:38.726Z,3.40
2022-12-16T08:00:58.910Z,3.50
2022-12-16T08:03:19.683Z,3.50
2022-12-16T08:05:40.225Z,3.50
2022-12-16T08:08:00.868Z,3.50
2022-12-16T08:10:38.221Z,3.50
2022-12-16T08:12:58.369Z,3.50
2022-12-16T08:15:18.751Z,3.50
2022-12-16T08:17:38.997Z,3.50
2022-12-16T08:19:59.264Z,3.50
2022-12-16T08:22:19.533Z,3.50
2022-12-16T08:24:39.849Z,3.50
2022-12-16T08:27:00.335Z,3.50
2022-12-16T08:29:42.999Z,3.50
2022-12-16T08:32:00.786Z,3.50
2022-12-16T08:34:21.260Z,3.50
2022-12-16T08:36:41.771Z,3.50
2022-12-16T08:39:02.276Z,3.50
2022-12-16T08:41:22.831Z,3.40
2022-12-16T08:43:43.392Z,3.40
2022-12-16T08:46:03.984Z,3.40
2022-12-16T08:48:24.514Z,3.40
2022-12-16T08:50:44.649Z,3.30
2022-12-16T08:53:04.802Z,3.30
2022-12-16T08:55:29.493Z,3.30
2022-12-16T08:57:50.353Z,3.30
2022-12-16T09:00:10.847Z,3.30
2022-12-16T09:02:31.624Z,3.30
2022-12-16T09:04:51.979Z,3.30
2022-12-16T09:07:16.174Z,3.30
2022-12-16T09:09:36.604Z,3.30
2022-12-16T09:11:56.853Z,3.30
2022-12-16T09:14:17.026Z,3.30
2022-12-16T09:16:37.595Z,3.40
2022-12-16T09:18:58.068Z,3.40
2022-12-16T09:21:18.244Z,3.40
2022-12-16T09:23:38.409Z,3.40
2022-12-16T09:25:58.861Z,3.40
2022-12-16T09:28:19.242Z,3.40
2022-12-16T09:30:39.506Z,3.50
2022-12-16T09:33:03.556Z,3.50
2022-12-16T09:35:23.811Z,3.50
2022-12-16T09:37:44.403Z,3.50
2022-12-16T09:40:04.498Z,3.50
2022-12-16T09:42:24.671Z,3.60
2022-12-16T09:44:53.155Z,3.60
2022-12-16T09:47:33.170Z,3.60
2022-12-16T09:49:53.309Z,3.60
2022-12-16T09:52:18.348Z,3.60
2022-12-16T09:54:42.409Z,3.60
2022-12-16T09:57:03.812Z,3.60
2022-12-16T09:59:28.862Z,3.60
2022-12-16T10:01:53.395Z,3.60
2022-12-16T10:04:16.148Z,3.70
2022-12-16T10:06:42.981Z,3.70
2022-12-16T10:09:07.103Z,3.80
2022-12-16T10:11:30.294Z,3.90
2022-12-16T10:13:55.852Z,3.90
2022-12-16T10:16:25.511Z,4.00
2022-12-16T10:18:51.027Z,4.10
2022-12-16T10:21:13.736Z,4.10
2022-12-16T10:23:43.107Z,4.30
2022-12-16T10:26:05.332Z,4.30
2022-12-16T10:28:36.508Z,4.40
2022-12-16T10:30:57.143Z,4.50
2022-12-16T10:33:18.236Z,4.60
2022-12-16T10:35:38.488Z,4.70
2022-12-16T10:37:59.164Z,4.80
2022-12-16T10:40:20.296Z,5.00
2022-12-16T10:42:48.426Z,5.10
2022-12-16T10:45:08.651Z,5.20
2022-12-16T10:47:29.650Z,5.30
2022-12-16T10:49:54.769Z,5.40
2022-12-16T10:52:15.198Z,5.60
2022-12-16T10:54:38.667Z,5.70
2022-12-16T10:57:17.715Z,5.80
2022-12-16T10:59:38.299Z,5.90
2022-12-16T11:01:58.694Z,6.00
2022-12-16T11:04:19.384Z,6.10
2022-12-16T11:06:45.672Z,6.20
2022-12-16T11:09:05.843Z,6.30
2022-12-16T11:11:33.065Z,6.40
2022-12-16T11:13:55.269Z,6.50
2022-12-16T11:16:24.817Z,6.60
2022-12-16T11:19:05.128Z,6.70
2022-12-16T11:21:29.591Z,6.70
2022-12-16T11:24:06.693Z,6.80
2022-12-16T11:26:36.376Z,6.80
2022-12-16T11:28:57.520Z,6.90
2022-12-16T11:31:24.567Z,7.00
2022-12-16T11:33:46.473Z,7.00
2022-12-16T11:36:11.714Z,7.10
2022-12-16T11:38:42.875Z,7.10
2022-12-16T11:41:03.228Z,7.20
2022-12-16T11:43:24.292Z,7.30
2022-12-16T11:45:44.588Z,7.30
2022-12-16T11:48:07.761Z,7.40
2022-12-16T11:50:33.372Z,7.40
2022-12-16T11:52:53.598Z,7.40
2022-12-16T11:56:04.596Z,7.50
2022-12-16T11:58:23.199Z,7.50
2022-12-16T12:00:43.788Z,7.60
2022-12-16T12:03:11.059Z,7.60
2022-12-16T12:05:31.913Z,7.60
2022-12-16T12:07:52.224Z,7.70
2022-12-16T12:10:26.825Z,7.80
2022-12-16T12:13:07.516Z,7.80
2022-12-16T12:15:30.957Z,7.80
2022-12-16T12:18:09.281Z,7.90
2022-12-16T12:20:44.331Z,7.80
2022-12-16T12:23:07.546Z,7.90
2022-12-16T12:25:35.299Z,7.90
2022-12-16T12:28:05.036Z,7.90
2022-12-16T12:30:29.177Z,7.90
2022-12-16T12:32:57.010Z,7.90
2022-12-16T12:35:29.303Z,7.90
2022-12-16T12:37:52.666Z,7.90
2022-12-16T12:40:19.769Z,7.80
2022-12-16T12:42:54.950Z,7.90
2022-12-16T12:45:19.850Z,7.80
2022-12-16T12:47:41.326Z,7.80
2022-12-16T12:50:21.075Z,7.70
2022-12-16T12:53:00.337Z,7.70
2022-12-16T12:55:27.120Z,7.70
2022-12-16T12:57:48.138Z,7.70
2022-12-16T13:00:11.847Z,7.60
2022-12-16T13:02:40.050Z,7.60
2022-12-16T13:05:01.613Z,7.60
2022-12-16T13:07:22.682Z,7.60
2022-12-16T13:09:50.727Z,7.60
2022-12-16T13:12:26.586Z,7.50
2022-12-16T13:14:50.270Z,7.50
2022-12-16T13:17:18.899Z,7.50
2022-12-16T13:19:49.755Z,7.50
2022-12-16T13:22:10.282Z,7.50
2022-12-16T13:24:40.086Z,7.50
2022-12-16T13:27:17.845Z,7.50
2022-12-16T13:29:39.713Z,7.50
2022-12-16T13:32:17.908Z,7.50
2022-12-16T13:34:38.403Z,7.50
2022-12-16T13:36:59.136Z,7.40
2022-12-16T13:39:25.801Z,7.40
2022-12-16T13:41:46.433Z,7.50
2022-12-16T13:44:06.936Z,7.40
2022-12-16T13:46:27.486Z,7.40
2022-12-16T13:48:57.959Z,7.40
2022-12-16T13:51:19.368Z,7.40
2022-12-16T13:53:41.376Z,7.40
2022-12-16T13:56:11.248Z,7.30
2022-12-16T13:58:51.892Z,7.30
2022-12-16T14:01:24.337Z,7.30
2022-12-16T14:04:04.773Z,7.30
2022-12-16T14:06:29.443Z,7.30
2022-12-16T14:08:51.622Z,7.20
2022-12-16T14:11:15.397Z,7.20
2022-12-16T14:13:41.132Z,7.20
2022-12-16T14:16:04.501Z,7.20
2022-12-16T14:18:30.602Z,7.20
2022-12-16T14:20:59.838Z,7.10
2022-12-16T14:23:54.646Z,7.10
2022-12-16T14:26:05.531Z,7.10
2022-12-16T14:28:31.793Z,7.10
2022-12-16T14:30:52.598Z,7.00
2022-12-16T14:33:13.039Z,7.00
2022-12-16T14:35:33.492Z,7.00
2022-12-16T14:37:55.145Z,7.00
2022-12-16T14:40:15.596Z,7.00
2022-12-16T14:42:39.161Z,6.90
2022-12-16T14:45:00.312Z,6.90
2022-12-16T14:47:21.622Z,6.90
2022-12-16T14:49:43.253Z,6.80
2022-12-16T14:52:04.325Z,6.80
2022-12-16T14:54:36.957Z,6.70
2022-12-16T14:56:58.221Z,6.70
2022-12-16T14:59:30.743Z,6.60
2022-12-16T15:01:50.956Z,6.60
2022-12-16T15:04:11.664Z,6.50
2022-12-16T15:06:45.899Z,6.40
2022-12-16T15:09:11.942Z,6.40
2022-12-16T15:11:34.371Z,6.30
2022-12-16T15:14:00.243Z,6.30
2022-12-16T15:16:24.777Z,6.30
2022-12-16T15:18:48.869Z,6.20
2022-12-16T15:21:10.776Z,6.20
2022-12-16T15:23:45.219Z,6.20
2022-12-16T15:26:11.108Z,6.10
2022-12-16T15:28:57.838Z,6.10
2022-12-16T15:31:18.344Z,6.10
2022-12-16T15:33:40.672Z,6.10
2022-12-16T15:36:01.951Z,6.00
2022-12-16T15:38:29.135Z,6.00
2022-12-16T15:40:50.342Z,6.00
2022-12-16T15:43:24.436Z,5.90
2022-12-16T15:45:46.550Z,5.90
2022-12-16T15:48:08.167Z,5.90
2022-12-16T15:50:32.423Z,5.90
2022-12-16T15:52:57.514Z,5.90
2022-12-16T15:55:18.070Z,5.90
2022-12-16T15:57:49.658Z,5.80
2022-12-16T16:00:34.056Z,5.80
2022-12-16T16:02:54.387Z,5.80
2022-12-16T16:05:14.944Z,5.80
2022-12-16T16:07:35.302Z,5.70
2022-12-16T16:09:56.622Z,5.70
2022-12-16T16:12:17.004Z,5.70
2022-12-16T16:14:37.302Z,5.70
2022-12-16T16:17:00.511Z,5.70
2022-12-16T16:19:20.733Z,5.80
2022-12-16T16:21:41.099Z,5.60
2022-12-16T16:24:01.345Z,5.60
2022-12-16T16:26:21.620Z,5.60
2022-12-16T16:28:41.814Z,5.60
2022-12-16T16:31:02.086Z,5.50
2022-12-16T16:33:22.692Z,5.70
2022-12-16T16:35:42.917Z,5.50
2022-12-16T16:38:03.201Z,5.50
2022-12-16T16:40:42.555Z,5.50
2022-12-16T16:43:02.934Z,5.50
2022-12-16T16:45:23.401Z,5.40
2022-12-16T16:47:43.611Z,5.40
2022-12-16T16:50:04.806Z,5.40
2022-12-16T16:52:28.723Z,5.40
2022-12-16T16:54:48.880Z,5.40
2022-12-16T16:57:08.951Z,5.40
2022-12-16T16:59:30.732Z,5.30
2022-12-16T17:01:51.466Z,5.30
2022-12-16T17:04:12.077Z,5.30
2022-12-16T17:06:32.531Z,5.20
2022-12-16T17:08:52.740Z,5.30
2022-12-16T17:11:13.066Z,5.20
2022-12-16T17:13:34.062Z,5.20
2022-12-16T17:15:55.770Z,5.20
2022-12-16T17:18:16.181Z,5.20
2022-12-16T17:20:36.688Z,5.20
2022-12-16T17:22:56.960Z,5.20
2022-12-16T17:25:17.442Z,5.20
2022-12-16T17:27:39.444Z,5.20
2022-12-16T17:29:59.603Z,5.20
2022-12-16T17:32:20.166Z,5.20
2022-12-16T17:34:40.722Z,5.20
2022-12-16T17:37:01.060Z,5.20
2022-12-16T17:39:22.726Z,5.20
2022-12-16T17:41:42.988Z,5.20
2022-12-16T17:44:03.243Z,5.20
2022-12-16T17:46:36.403Z,5.20
2022-12-16T17:48:58.446Z,5.20
2022-12-16T17:51:20.604Z,5.20
2022-12-16T17:53:40.856Z,5.10
2022-12-16T17:56:02.161Z,5.10
2022-12-16T17:58:22.295Z,5.10
2022-12-16T18:00:42.822Z,5.10
2022-12-16T18:03:03.083Z,5.10
2022-12-16T18:05:23.516Z,5.10
2022-12-16T18:07:44.049Z,5.10
2022-12-16T18:10:04.641Z,5.00
2022-12-16T18:12:25.143Z,5.00
2022-12-16T18:14:45.555Z,5.00
2022-12-16T18:17:06.031Z,5.00
2022-12-16T18:19:26.216Z,5.00
2022-12-16T18:21:46.624Z,5.00
2022-12-16T18:24:06.881Z,5.00
2022-12-16T18:26:27.991Z,5.00
2022-12-16T18:28:48.812Z,5.00
2022-12-16T18:31:13.918Z,5.00
2022-12-16T18:33:35.066Z,5.00
2022-12-16T18:35:55.805Z,4.90
2022-12-16T18:38:16.678Z,4.90
2022-12-16T18:40:37.100Z,5.00
2022-12-16T18:42:57.320Z,4.90
2022-12-16T18:45:17.431Z,4.90
2022-12-16T18:47:38.007Z,4.90
2022-12-16T18:49:58.192Z,4.90
2022-12-16T18:52:18.684Z,4.80
2022-12-16T18:54:39.074Z,4.80
2022-12-16T18:56:59.602Z,4.80
2022-12-16T18:59:19.709Z,4.80
2022-12-16T19:01:40.045Z,4.70
2022-12-16T19:04:00.782Z,4.70
2022-12-16T19:06:21.205Z,4.70
2022-12-16T19:08:41.670Z,4.70
2022-12-16T19:11:02.152Z,4.60
2022-12-16T19:13:22.688Z,4.60
2022-12-16T19:15:43.355Z,4.50
2022-12-16T19:18:08.331Z,4.50
2022-12-16T19:20:33.054Z,4.50
2022-12-16T19:22:54.770Z,4.40
2022-12-16T19:25:16.308Z,4.40
2022-12-16T19:27:36.475Z,4.40
2022-12-16T19:29:57.062Z,4.40
2022-12-16T19:32:17.646Z,4.30
2022-12-16T19:34:38.381Z,4.40
2022-12-16T19:36:59.484Z,4.40
2022-12-16T19:39:19.722Z,4.30
2022-12-16T19:41:40.379Z,4.30
2022-12-16T19:44:06.139Z,4.30
2022-12-16T19:46:27.019Z,4.30
2022-12-16T19:48:47.609Z,4.30
2022-12-16T19:51:08.164Z,4.30
2022-12-16T19:53:28.708Z,4.30
2022-12-16T19:55:49.159Z,4.20
2022-12-16T19:58:09.733Z,4.20
2022-12-16T20:00:30.282Z,4.20
2022-12-16T20:02:50.661Z,4.10
2022-12-16T20:05:12.506Z,4.20
2022-12-16T20:07:32.763Z,4.10
2022-12-16T20:09:54.885Z,4.10
2022-12-16T20:12:21.157Z,4.10
2022-12-16T20:14:43.858Z,4.10
2022-12-16T20:17:06.451Z,4.10
2022-12-16T20:19:32.358Z,4.10
2022-12-16T20:22:14.523Z,4.00
2022-12-16T20:24:38.061Z,4.00
2022-12-16T20:26:59.581Z,4.00
2022-12-16T20:29:26.684Z,3.90
2022-12-16T20:31:49.268Z,3.90
2022-12-16T20:34:14.938Z,3.90
2022-12-16T20:36:37.102Z,3.90
2022-12-16T20:38:58.614Z,3.90
2022-12-16T20:41:21.204Z,3.90
2022-12-16T20:43:42.837Z,3.90
2022-12-16T20:49:18.364Z,3.80
2022-12-16T20:51:53.712Z,3.80
2022-12-16T20:54:37.695Z,3.80
2022-12-16T20:56:59.633Z,3.80
2022-12-16T20:59:21.038Z,3.70
2022-12-16T21:04:27.574Z,3.70
2022-12-16T21:06:49.474Z,3.70
2022-12-16T21:09:10.818Z,3.60
2022-12-16T21:11:32.522Z,3.60
2022-12-16T21:13:56.273Z,3.60
2022-12-16T21:16:18.279Z,3.50
2022-12-16T21:18:38.568Z,3.50
2022-12-16T21:20:59.090Z,3.50
2022-12-16T21:23:20.517Z,3.40
2022-12-16T21:25:41.084Z,3.50
2022-12-16T21:28:18.342Z,3.40
2022-12-16T21:30:39.071Z,3.40
2022-12-16T21:32:59.329Z,3.40
2022-12-16T21:35:19.902Z,3.40
2022-12-16T21:37:39.952Z,3.40
2022-12-16T21:40:00.524Z,3.50
2022-12-16T21:42:21.007Z,3.40
2022-12-16T21:44:41.195Z,3.40
2022-12-16T21:47:01.586Z,3.40
2022-12-16T21:49:22.017Z,3.40
2022-12-16T21:51:42.509Z,3.40
2022-12-16T21:54:08.045Z,3.40
2022-12-16T21:56:30.087Z,3.30
2022-12-16T21:58:50.166Z,3.30
2022-12-16T22:01:14.049Z,3.30
2022-12-16T22:03:34.275Z,3.30
2022-12-16T22:05:54.821Z,3.30
2022-12-16T22:08:16.514Z,3.30
2022-12-16T22:10:37.261Z,3.30
2022-12-16T22:12:57.826Z,3.20
2022-12-16T22:15:18.199Z,3.20
2022-12-16T22:17:38.502Z,3.20
2022-12-16T22:19:59.306Z,3.20
2022-12-16T22:22:19.599Z,3.20
2022-12-16T22:24:39.815Z,3.20
2022-12-16T22:26:59.949Z,3.20
2022-12-16T22:29:20.161Z,3.20
2022-12-16T22:31:40.531Z,3.20
2022-12-16T22:34:00.961Z,3.20
2022-12-16T22:36:25.913Z,3.20
2022-12-16T22:38:49.558Z,3.20
2022-12-16T22:41:19.765Z,3.20
2022-12-16T22:43:47.557Z,3.20
2022-12-16T22:46:15.740Z,3.20
2022-12-16T22:48:36.067Z,3.20
2022-12-16T22:50:56.415Z,3.20
2022-12-16T22:53:16.849Z,3.20
2022-12-16T22:55:36.994Z,3.20
2022-12-16T22:57:57.403Z,3.20
2022-12-16T23:00:17.625Z,3.20
2022-12-16T23:02:37.787Z,3.20
2022-12-16T23:04:58.367Z,3.20
2022-12-16T23:07:18.901Z,3.20
2022-12-16T23:09:38.936Z,3.20
2022-12-16T23:11:59.587Z,3.20
2022-12-16T23:14:19.762Z,3.20
2022-12-16T23:16:39.920Z,3.10
2022-12-16T23:19:00.360Z,3.20
2022-12-16T23:21:21.226Z,3.10
2022-12-16T23:23:41.983Z,3.10
2022-12-16T23:26:12.675Z,3.10
2022-12-16T23:28:33.148Z,3.10
2022-12-16T23:30:53.661Z,3.10
2022-12-16T23:33:17.273Z,3.10
2022-12-16T23:35:37.398Z,3.00
2022-12-16T23:37:57.800Z,3.00
2022-12-16T23:40:28.386Z,3.00
2022-12-16T23:42:48.843Z,3.00
2022-12-16T23:45:09.084Z,3.00
2022-12-16T23:47:30.284Z,3.00
2022-12-16T23:49:50.587Z,3.00
2022-12-16T23:52:10.884Z,3.00
2022-12-16T23:54:31.110Z,3.00
2022-12-16T23:56:51.813Z,3.00
2022-12-16T23:59:12.012Z,3.00
